sensor_id;sensor_type;location;lat;lon;timestamp;temperature;humidity
18297;DHT22;18066;52.106;5.534;2022-10-04T00:01:44;13.40;99.90
18297;DHT22;18066;52.106;5.534;2022-10-04T00:04:15;13.20;99.90
18297;DHT22;18066;52.106;5.534;2022-10-04T00:06:47;13.40;99.90
18297;DHT22;18066;52.106;5.534;2022-10-04T00:09:18;14.10;99.90
18297;DHT22;18066;52.106;5.534;2022-10-04T00:11:47;13.30;99.90
18297;DHT22;18066;52.106;5.534;2022-10-04T00:14:18;13.40;99.90
18297;DHT22;18066;52.106;5.534;2022-10-04T00:16:46;13.30;99.90
18297;DHT22;18066;52.106;5.534;2022-10-04T00:19:40;13.30;99.90
18297;DHT22;18066;52.106;5.534;2022-10-04T00:25:18;13.40;99.90
18297;DHT22;18066;52.106;5.534;2022-10-04T00:28:22;13.40;99.90
18297;DHT22;18066;52.106;5.534;2022-10-04T00:31:07;13.50;99.90
18297;DHT22;18066;52.106;5.534;2022-10-04T00:33:35;13.40;99.90
18297;DHT22;18066;52.106;5.534;2022-10-04T00:44:56;13.50;99.90
18297;DHT22;18066;52.106;5.534;2022-10-04T00:47:28;13.30;99.90
18297;DHT22;18066;52.106;5.534;2022-10-04T00:50:04;13.40;99.90
18297;DHT22;18066;52.106;5.534;2022-10-04T00:52:34;13.50;99.90
18297;DHT22;18066;52.106;5.534;2022-10-04T00:55:04;13.40;99.90
18297;DHT22;18066;52.106;5.534;2022-10-04T00:57:37;13.50;99.90
18297;DHT22;18066;52.106;5.534;2022-10-04T01:00:10;13.40;99.90
18297;DHT22;18066;52.106;5.534;2022-10-04T01:02:46;13.40;99.90
18297;DHT22;18066;52.106;5.534;2022-10-04T01:05:18;13.30;99.90
18297;DHT22;18066;52.106;5.534;2022-10-04T01:07:48;13.40;99.90
18297;DHT22;18066;52.106;5.534;2022-10-04T01:10:20;13.30;99.90
18297;DHT22;18066;52.106;5.534;2022-10-04T01:12:50;13.30;99.90
18297;DHT22;18066;52.106;5.534;2022-10-04T01:15:25;13.30;99.90
18297;DHT22;18066;52.106;5.534;2022-10-04T01:18:14;13.30;99.90
18297;DHT22;18066;52.106;5.534;2022-10-04T01:20:50;13.20;99.90
18297;DHT22;18066;52.106;5.534;2022-10-04T01:23:38;13.20;99.90
18297;DHT22;18066;52.106;5.534;2022-10-04T01:26:38;13.40;99.90
18297;DHT22;18066;52.106;5.534;2022-10-04T01:29:08;13.20;99.90
18297;DHT22;18066;52.106;5.534;2022-10-04T01:31:37;13.10;99.90
18297;DHT22;18066;52.106;5.534;2022-10-04T01:34:05;13.20;99.90
18297;DHT22;18066;52.106;5.534;2022-10-04T01:36:33;13.20;99.90
18297;DHT22;18066;52.106;5.534;2022-10-04T01:39:02;13.10;99.90
18297;DHT22;18066;52.106;5.534;2022-10-04T01:41:38;13.20;99.90
18297;DHT22;18066;52.106;5.534;2022-10-04T01:44:11;13.30;99.90
18297;DHT22;18066;52.106;5.534;2022-10-04T01:46:40;13.60;99.90
18297;DHT22;18066;52.106;5.534;2022-10-04T01:49:11;14.00;99.90
18297;DHT22;18066;52.106;5.534;2022-10-04T01:51:42;13.20;99.90
18297;DHT22;18066;52.106;5.534;2022-10-04T01:54:14;13.30;99.90
18297;DHT22;18066;52.106;5.534;2022-10-04T01:56:48;13.10;99.90
18297;DHT22;18066;52.106;5.534;2022-10-04T01:59:20;13.20;99.90
18297;DHT22;18066;52.106;5.534;2022-10-04T02:01:51;13.20;99.90
18297;DHT22;18066;52.106;5.534;2022-10-04T02:04:22;13.20;99.90
18297;DHT22;18066;52.106;5.534;2022-10-04T02:06:55;13.10;99.90
18297;DHT22;18066;52.106;5.534;2022-10-04T02:09:25;13.10;99.90
18297;DHT22;18066;52.106;5.534;2022-10-04T02:11:54;13.10;99.90
18297;DHT22;18066;52.106;5.534;2022-10-04T02:14:24;13.00;99.90
18297;DHT22;18066;52.106;5.534;2022-10-04T02:16:52;13.00;99.90
18297;DHT22;18066;52.106;5.534;2022-10-04T02:19:21;13.00;99.90
18297;DHT22;18066;52.106;5.534;2022-10-04T02:21:50;13.00;99.90
18297;DHT22;18066;52.106;5.534;2022-10-04T02:24:18;12.90;99.90
18297;DHT22;18066;52.106;5.534;2022-10-04T02:26:49;13.00;99.90
18297;DHT22;18066;52.106;5.534;2022-10-04T02:29:17;13.00;99.90
18297;DHT22;18066;52.106;5.534;2022-10-04T02:31:45;12.80;99.90
18297;DHT22;18066;52.106;5.534;2022-10-04T02:34:30;12.80;99.90
18297;DHT22;18066;52.106;5.534;2022-10-04T02:37:00;13.10;99.90
18297;DHT22;18066;52.106;5.534;2022-10-04T02:39:32;12.80;99.90
18297;DHT22;18066;52.106;5.534;2022-10-04T02:42:08;12.80;99.90
18297;DHT22;18066;52.106;5.534;2022-10-04T02:44:41;12.80;99.90
18297;DHT22;18066;52.106;5.534;2022-10-04T02:47:15;12.90;99.90
18297;DHT22;18066;52.106;5.534;2022-10-04T02:49:45;12.80;99.90
18297;DHT22;18066;52.106;5.534;2022-10-04T02:52:17;12.70;99.90
18297;DHT22;18066;52.106;5.534;2022-10-04T02:54:48;12.80;99.90
18297;DHT22;18066;52.106;5.534;2022-10-04T02:57:19;13.10;99.90
18297;DHT22;18066;52.106;5.534;2022-10-04T02:59:48;13.00;99.90
18297;DHT22;18066;52.106;5.534;2022-10-04T03:02:22;12.80;99.90
18297;DHT22;18066;52.106;5.534;2022-10-04T03:04:49;12.70;99.90
18297;DHT22;18066;52.106;5.534;2022-10-04T03:07:19;12.70;99.90
18297;DHT22;18066;52.106;5.534;2022-10-04T03:09:46;12.50;99.90
18297;DHT22;18066;52.106;5.534;2022-10-04T03:12:14;12.60;99.90
18297;DHT22;18066;52.106;5.534;2022-10-04T03:14:41;12.50;99.90
18297;DHT22;18066;52.106;5.534;2022-10-04T03:17:12;12.50;99.90
18297;DHT22;18066;52.106;5.534;2022-10-04T03:19:40;12.40;99.90
18297;DHT22;18066;52.106;5.534;2022-10-04T03:22:08;12.40;99.90
18297;DHT22;18066;52.106;5.534;2022-10-04T03:24:38;12.50;99.90
18297;DHT22;18066;52.106;5.534;2022-10-04T03:27:07;12.40;99.90
18297;DHT22;18066;52.106;5.534;2022-10-04T03:29:39;12.70;99.90
18297;DHT22;18066;52.106;5.534;2022-10-04T03:32:12;12.80;99.90
18297;DHT22;18066;52.106;5.534;2022-10-04T03:34:41;12.40;99.90
18297;DHT22;18066;52.106;5.534;2022-10-04T03:37:13;12.40;99.90
18297;DHT22;18066;52.106;5.534;2022-10-04T03:39:42;12.30;99.90
18297;DHT22;18066;52.106;5.534;2022-10-04T03:42:13;12.30;99.90
18297;DHT22;18066;52.106;5.534;2022-10-04T03:44:42;12.40;99.90
18297;DHT22;18066;52.106;5.534;2022-10-04T03:47:13;12.30;99.90
18297;DHT22;18066;52.106;5.534;2022-10-04T03:49:42;12.20;99.90
18297;DHT22;18066;52.106;5.534;2022-10-04T03:52:16;12.50;99.90
18297;DHT22;18066;52.106;5.534;2022-10-04T03:54:44;12.30;99.90
18297;DHT22;18066;52.106;5.534;2022-10-04T03:57:12;12.20;99.90
18297;DHT22;18066;52.106;5.534;2022-10-04T03:59:39;12.40;99.90
18297;DHT22;18066;52.106;5.534;2022-10-04T04:02:11;12.60;99.90
18297;DHT22;18066;52.106;5.534;2022-10-04T04:04:46;12.10;99.90
18297;DHT22;18066;52.106;5.534;2022-10-04T04:07:19;12.00;99.90
18297;DHT22;18066;52.106;5.534;2022-10-04T04:09:51;12.10;99.90
18297;DHT22;18066;52.106;5.534;2022-10-04T04:12:25;12.20;99.90
18297;DHT22;18066;52.106;5.534;2022-10-04T04:14:54;12.10;99.90
18297;DHT22;18066;52.106;5.534;2022-10-04T04:17:36;12.00;99.90
18297;DHT22;18066;52.106;5.534;2022-10-04T04:20:14;12.00;99.90
18297;DHT22;18066;52.106;5.534;2022-10-04T04:22:44;12.00;99.90
18297;DHT22;18066;52.106;5.534;2022-10-04T04:25:15;12.00;99.90
18297;DHT22;18066;52.106;5.534;2022-10-04T04:27:43;12.00;99.90
18297;DHT22;18066;52.106;5.534;2022-10-04T04:30:16;11.90;99.90
18297;DHT22;18066;52.106;5.534;2022-10-04T04:32:48;12.00;99.90
18297;DHT22;18066;52.106;5.534;2022-10-04T04:35:22;11.90;99.90
18297;DHT22;18066;52.106;5.534;2022-10-04T04:38:06;12.00;99.90
18297;DHT22;18066;52.106;5.534;2022-10-04T04:40:37;11.90;99.90
18297;DHT22;18066;52.106;5.534;2022-10-04T04:43:04;11.80;99.90
18297;DHT22;18066;52.106;5.534;2022-10-04T04:45:32;12.00;99.90
18297;DHT22;18066;52.106;5.534;2022-10-04T04:48:01;11.90;99.90
18297;DHT22;18066;52.106;5.534;2022-10-04T04:50:31;11.90;99.90
18297;DHT22;18066;52.106;5.534;2022-10-04T04:53:02;11.90;99.90
18297;DHT22;18066;52.106;5.534;2022-10-04T04:55:33;11.80;99.90
18297;DHT22;18066;52.106;5.534;2022-10-04T04:58:01;11.70;99.90
18297;DHT22;18066;52.106;5.534;2022-10-04T05:00:31;11.80;99.90
18297;DHT22;18066;52.106;5.534;2022-10-04T05:03:02;11.70;99.90
18297;DHT22;18066;52.106;5.534;2022-10-04T05:05:31;11.60;99.90
18297;DHT22;18066;52.106;5.534;2022-10-04T05:08:12;11.70;99.90
18297;DHT22;18066;52.106;5.534;2022-10-04T05:10:41;11.70;99.90
18297;DHT22;18066;52.106;5.534;2022-10-04T05:13:10;12.10;99.90
18297;DHT22;18066;52.106;5.534;2022-10-04T05:15:38;11.70;99.90
18297;DHT22;18066;52.106;5.534;2022-10-04T05:18:26;11.60;99.90
18297;DHT22;18066;52.106;5.534;2022-10-04T05:20:56;11.70;99.90
18297;DHT22;18066;52.106;5.534;2022-10-04T05:23:23;11.60;99.90
18297;DHT22;18066;52.106;5.534;2022-10-04T05:25:50;11.60;99.90
18297;DHT22;18066;52.106;5.534;2022-10-04T05:28:17;11.60;99.90
18297;DHT22;18066;52.106;5.534;2022-10-04T05:30:52;11.60;99.90
18297;DHT22;18066;52.106;5.534;2022-10-04T05:33:25;11.50;99.90
18297;DHT22;18066;52.106;5.534;2022-10-04T05:39:10;11.70;99.90
18297;DHT22;18066;52.106;5.534;2022-10-04T05:41:45;11.60;99.90
18297;DHT22;18066;52.106;5.534;2022-10-04T05:44:23;11.60;99.90
18297;DHT22;18066;52.106;5.534;2022-10-04T05:46:52;11.60;99.90
18297;DHT22;18066;52.106;5.534;2022-10-04T05:49:22;11.60;99.90
18297;DHT22;18066;52.106;5.534;2022-10-04T05:51:53;11.70;99.90
18297;DHT22;18066;52.106;5.534;2022-10-04T05:54:22;11.60;99.90
18297;DHT22;18066;52.106;5.534;2022-10-04T05:57:16;11.70;99.90
18297;DHT22;18066;52.106;5.534;2022-10-04T06:00:00;11.60;99.90
18297;DHT22;18066;52.106;5.534;2022-10-04T06:02:40;11.70;99.90
18297;DHT22;18066;52.106;5.534;2022-10-04T06:05:14;11.50;99.90
18297;DHT22;18066;52.106;5.534;2022-10-04T06:07:49;11.50;99.90
18297;DHT22;18066;52.106;5.534;2022-10-04T06:10:54;11.60;99.90
18297;DHT22;18066;52.106;5.534;2022-10-04T06:13:39;11.70;99.90
18297;DHT22;18066;52.106;5.534;2022-10-04T06:16:17;11.80;99.90
18297;DHT22;18066;52.106;5.534;2022-10-04T06:19:05;11.70;99.90
18297;DHT22;18066;52.106;5.534;2022-10-04T06:21:45;11.80;99.90
18297;DHT22;18066;52.106;5.534;2022-10-04T06:24:23;11.70;99.90
18297;DHT22;18066;52.106;5.534;2022-10-04T06:26:54;11.90;99.90
18297;DHT22;18066;52.106;5.534;2022-10-04T06:29:24;11.80;99.90
18297;DHT22;18066;52.106;5.534;2022-10-04T06:32:06;11.80;99.90
18297;DHT22;18066;52.106;5.534;2022-10-04T06:38:17;11.80;99.90
18297;DHT22;18066;52.106;5.534;2022-10-04T06:43:54;11.80;99.90
18297;DHT22;18066;52.106;5.534;2022-10-04T06:46:28;11.80;99.90
18297;DHT22;18066;52.106;5.534;2022-10-04T06:49:10;11.80;99.90
18297;DHT22;18066;52.106;5.534;2022-10-04T06:55:01;11.90;99.90
18297;DHT22;18066;52.106;5.534;2022-10-04T06:58:03;11.90;99.90
18297;DHT22;18066;52.106;5.534;2022-10-04T07:00:38;12.00;99.90
18297;DHT22;18066;52.106;5.534;2022-10-04T07:03:11;12.20;99.90
18297;DHT22;18066;52.106;5.534;2022-10-04T07:05:43;12.70;99.90
18297;DHT22;18066;52.106;5.534;2022-10-04T07:08:16;12.20;99.90
18297;DHT22;18066;52.106;5.534;2022-10-04T07:10:59;12.20;99.90
18297;DHT22;18066;52.106;5.534;2022-10-04T07:13:43;12.30;99.90
18297;DHT22;18066;52.106;5.534;2022-10-04T07:16:24;12.50;99.90
18297;DHT22;18066;52.106;5.534;2022-10-04T07:18:59;12.50;99.90
18297;DHT22;18066;52.106;5.534;2022-10-04T07:21:34;12.60;99.90
18297;DHT22;18066;52.106;5.534;2022-10-04T07:24:02;12.60;99.90
18297;DHT22;18066;52.106;5.534;2022-10-04T07:26:35;12.60;99.90
18297;DHT22;18066;52.106;5.534;2022-10-04T07:29:11;12.60;99.90
18297;DHT22;18066;52.106;5.534;2022-10-04T07:31:51;12.60;99.90
18297;DHT22;18066;52.106;5.534;2022-10-04T07:34:23;12.50;99.90
18297;DHT22;18066;52.106;5.534;2022-10-04T07:36:53;12.60;99.90
18297;DHT22;18066;52.106;5.534;2022-10-04T07:39:25;12.80;99.90
18297;DHT22;18066;52.106;5.534;2022-10-04T07:41:56;12.80;99.90
18297;DHT22;18066;52.106;5.534;2022-10-04T07:44:32;12.80;99.90
18297;DHT22;18066;52.106;5.534;2022-10-04T07:47:02;12.90;99.90
18297;DHT22;18066;52.106;5.534;2022-10-04T07:49:36;13.00;99.90
18297;DHT22;18066;52.106;5.534;2022-10-04T07:52:36;13.10;99.90
18297;DHT22;18066;52.106;5.534;2022-10-04T07:55:17;13.20;99.90
18297;DHT22;18066;52.106;5.534;2022-10-04T07:57:55;13.20;99.90
18297;DHT22;18066;52.106;5.534;2022-10-04T08:00:27;13.30;99.90
18297;DHT22;18066;52.106;5.534;2022-10-04T08:03:13;14.10;99.90
18297;DHT22;18066;52.106;5.534;2022-10-04T08:05:47;13.70;99.90
18297;DHT22;18066;52.106;5.534;2022-10-04T08:08:42;13.50;99.90
18297;DHT22;18066;52.106;5.534;2022-10-04T08:11:19;13.80;99.90
18297;DHT22;18066;52.106;5.534;2022-10-04T08:13:56;13.60;99.90
18297;DHT22;18066;52.106;5.534;2022-10-04T08:16:35;13.70;99.90
18297;DHT22;18066;52.106;5.534;2022-10-04T08:19:20;13.60;99.90
18297;DHT22;18066;52.106;5.534;2022-10-04T08:22:03;13.60;99.90
18297;DHT22;18066;52.106;5.534;2022-10-04T08:24:34;13.60;99.90
18297;DHT22;18066;52.106;5.534;2022-10-04T08:27:28;13.70;99.90
18297;DHT22;18066;52.106;5.534;2022-10-04T08:30:08;13.80;99.90
18297;DHT22;18066;52.106;5.534;2022-10-04T08:32:50;13.90;99.90
18297;DHT22;18066;52.106;5.534;2022-10-04T08:35:31;14.00;99.90
18297;DHT22;18066;52.106;5.534;2022-10-04T08:38:23;14.10;99.90
18297;DHT22;18066;52.106;5.534;2022-10-04T08:44:43;14.40;99.90
18297;DHT22;18066;52.106;5.534;2022-10-04T08:47:54;14.60;99.90
18297;DHT22;18066;52.106;5.534;2022-10-04T08:50:45;14.60;99.90
18297;DHT22;18066;52.106;5.534;2022-10-04T08:53:43;14.60;99.90
18297;DHT22;18066;52.106;5.534;2022-10-04T08:56:23;14.60;99.90
18297;DHT22;18066;52.106;5.534;2022-10-04T08:59:31;14.60;99.90
18297;DHT22;18066;52.106;5.534;2022-10-04T09:02:36;14.60;99.90
18297;DHT22;18066;52.106;5.534;2022-10-04T09:05:21;14.70;99.90
18297;DHT22;18066;52.106;5.534;2022-10-04T09:08:13;14.90;99.90
18297;DHT22;18066;52.106;5.534;2022-10-04T09:11:10;14.90;99.90
18297;DHT22;18066;52.106;5.534;2022-10-04T09:13:50;15.00;99.90
18297;DHT22;18066;52.106;5.534;2022-10-04T09:16:25;15.00;99.90
18297;DHT22;18066;52.106;5.534;2022-10-04T09:19:19;15.10;99.90
18297;DHT22;18066;52.106;5.534;2022-10-04T09:22:11;15.20;99.90
18297;DHT22;18066;52.106;5.534;2022-10-04T09:25:02;15.10;99.90
18297;DHT22;18066;52.106;5.534;2022-10-04T09:27:58;15.10;99.90
18297;DHT22;18066;52.106;5.534;2022-10-04T09:30:40;15.10;99.90
18297;DHT22;18066;52.106;5.534;2022-10-04T09:33:25;15.20;99.90
18297;DHT22;18066;52.106;5.534;2022-10-04T09:36:10;15.50;99.90
18297;DHT22;18066;52.106;5.534;2022-10-04T09:39:09;15.30;99.90
18297;DHT22;18066;52.106;5.534;2022-10-04T09:47:52;15.50;99.90
18297;DHT22;18066;52.106;5.534;2022-10-04T09:53:28;15.50;99.90
18297;DHT22;18066;52.106;5.534;2022-10-04T09:56:06;15.60;99.90
18297;DHT22;18066;52.106;5.534;2022-10-04T09:58:56;15.70;99.90
18297;DHT22;18066;52.106;5.534;2022-10-04T10:01:34;15.70;99.90
18297;DHT22;18066;52.106;5.534;2022-10-04T10:04:25;15.80;99.90
18297;DHT22;18066;52.106;5.534;2022-10-04T10:07:07;15.80;99.90
18297;DHT22;18066;52.106;5.534;2022-10-04T10:09:43;15.80;99.90
18297;DHT22;18066;52.106;5.534;2022-10-04T10:12:55;15.70;99.90
18297;DHT22;18066;52.106;5.534;2022-10-04T10:15:49;15.70;99.90
18297;DHT22;18066;52.106;5.534;2022-10-04T10:18:29;15.60;99.90
18297;DHT22;18066;52.106;5.534;2022-10-04T10:21:12;15.50;99.90
18297;DHT22;18066;52.106;5.534;2022-10-04T10:24:02;15.60;99.90
18297;DHT22;18066;52.106;5.534;2022-10-04T10:26:53;15.80;99.90
18297;DHT22;18066;52.106;5.534;2022-10-04T10:29:48;15.60;99.90
18297;DHT22;18066;52.106;5.534;2022-10-04T10:32:42;15.70;99.90
18297;DHT22;18066;52.106;5.534;2022-10-04T10:35:22;15.80;99.90
18297;DHT22;18066;52.106;5.534;2022-10-04T10:37:58;15.70;99.90
18297;DHT22;18066;52.106;5.534;2022-10-04T10:40:45;15.60;99.90
18297;DHT22;18066;52.106;5.534;2022-10-04T10:43:42;15.70;99.90
18297;DHT22;18066;52.106;5.534;2022-10-04T10:46:25;15.60;99.90
18297;DHT22;18066;52.106;5.534;2022-10-04T10:55:23;15.70;99.90
18297;DHT22;18066;52.106;5.534;2022-10-04T10:58:20;15.90;99.90
18297;DHT22;18066;52.106;5.534;2022-10-04T11:01:09;16.00;99.90
18297;DHT22;18066;52.106;5.534;2022-10-04T11:03:59;16.00;99.90
18297;DHT22;18066;52.106;5.534;2022-10-04T11:09:52;16.20;99.90
18297;DHT22;18066;52.106;5.534;2022-10-04T11:12:42;16.30;99.90
18297;DHT22;18066;52.106;5.534;2022-10-04T11:15:38;16.30;99.90
18297;DHT22;18066;52.106;5.534;2022-10-04T11:18:33;16.30;99.90
18297;DHT22;18066;52.106;5.534;2022-10-04T11:21:30;16.40;99.90
18297;DHT22;18066;52.106;5.534;2022-10-04T11:27:13;16.60;99.90
18297;DHT22;18066;52.106;5.534;2022-10-04T11:29:54;16.80;99.90
18297;DHT22;18066;52.106;5.534;2022-10-04T11:35:49;17.00;99.90
18297;DHT22;18066;52.106;5.534;2022-10-04T11:38:28;17.30;99.90
18297;DHT22;18066;52.106;5.534;2022-10-04T11:41:11;17.50;99.90
18297;DHT22;18066;52.106;5.534;2022-10-04T11:46:43;17.20;99.90
18297;DHT22;18066;52.106;5.534;2022-10-04T11:49:40;17.40;99.90
18297;DHT22;18066;52.106;5.534;2022-10-04T11:55:45;17.50;99.90
18297;DHT22;18066;52.106;5.534;2022-10-04T11:58:27;17.50;99.90
18297;DHT22;18066;52.106;5.534;2022-10-04T12:01:17;17.50;99.90
18297;DHT22;18066;52.106;5.534;2022-10-04T12:04:12;17.40;99.90
18297;DHT22;18066;52.106;5.534;2022-10-04T12:06:49;17.40;99.90
18297;DHT22;18066;52.106;5.534;2022-10-04T12:09:27;17.40;99.90
18297;DHT22;18066;52.106;5.534;2022-10-04T12:12:21;17.60;99.90
18297;DHT22;18066;52.106;5.534;2022-10-04T12:15:28;17.70;99.90
18297;DHT22;18066;52.106;5.534;2022-10-04T12:18:21;17.80;99.90
18297;DHT22;18066;52.106;5.534;2022-10-04T12:21:06;18.00;99.90
18297;DHT22;18066;52.106;5.534;2022-10-04T12:23:58;18.20;99.90
18297;DHT22;18066;52.106;5.534;2022-10-04T12:26:49;18.40;99.90
18297;DHT22;18066;52.106;5.534;2022-10-04T12:32:38;18.10;99.90
18297;DHT22;18066;52.106;5.534;2022-10-04T12:35:20;18.00;99.90
18297;DHT22;18066;52.106;5.534;2022-10-04T12:38:09;17.80;99.90
18297;DHT22;18066;52.106;5.534;2022-10-04T12:40:42;17.60;99.90
18297;DHT22;18066;52.106;5.534;2022-10-04T12:43:18;17.50;99.90
18297;DHT22;18066;52.106;5.534;2022-10-04T12:45:55;17.40;99.90
18297;DHT22;18066;52.106;5.534;2022-10-04T12:48:45;17.40;99.90
18297;DHT22;18066;52.106;5.534;2022-10-04T12:51:29;17.40;99.90
18297;DHT22;18066;52.106;5.534;2022-10-04T12:54:07;17.40;99.90
18297;DHT22;18066;52.106;5.534;2022-10-04T12:56:44;17.60;99.90
18297;DHT22;18066;52.106;5.534;2022-10-04T12:59:34;17.30;99.90
18297;DHT22;18066;52.106;5.534;2022-10-04T13:02:17;17.50;99.90
18297;DHT22;18066;52.106;5.534;2022-10-04T13:04:48;17.70;99.90
18297;DHT22;18066;52.106;5.534;2022-10-04T13:07:33;17.70;99.90
18297;DHT22;18066;52.106;5.534;2022-10-04T13:10:19;17.80;99.90
18297;DHT22;18066;52.106;5.534;2022-10-04T13:13:07;17.60;99.90
18297;DHT22;18066;52.106;5.534;2022-10-04T13:15:43;17.70;99.90
18297;DHT22;18066;52.106;5.534;2022-10-04T13:18:20;17.70;99.90
18297;DHT22;18066;52.106;5.534;2022-10-04T13:23:30;17.70;99.90
18297;DHT22;18066;52.106;5.534;2022-10-04T13:26:14;17.80;99.90
18297;DHT22;18066;52.106;5.534;2022-10-04T13:28:51;17.80;99.90
18297;DHT22;18066;52.106;5.534;2022-10-04T13:31:26;17.90;99.90
18297;DHT22;18066;52.106;5.534;2022-10-04T13:34:06;18.00;99.90
18297;DHT22;18066;52.106;5.534;2022-10-04T13:36:46;18.00;99.90
18297;DHT22;18066;52.106;5.534;2022-10-04T13:39:35;18.00;99.90
18297;DHT22;18066;52.106;5.534;2022-10-04T13:42:25;18.00;99.90
18297;DHT22;18066;52.106;5.534;2022-10-04T13:45:20;18.10;99.90
18297;DHT22;18066;52.106;5.534;2022-10-04T13:48:09;18.20;99.90
18297;DHT22;18066;52.106;5.534;2022-10-04T13:50:55;18.20;99.90
18297;DHT22;18066;52.106;5.534;2022-10-04T13:53:33;18.40;99.90
18297;DHT22;18066;52.106;5.534;2022-10-04T13:56:42;18.40;99.90
18297;DHT22;18066;52.106;5.534;2022-10-04T13:59:18;18.40;99.90
18297;DHT22;18066;52.106;5.534;2022-10-04T14:05:18;18.30;99.90
18297;DHT22;18066;52.106;5.534;2022-10-04T14:08:15;18.30;99.90
18297;DHT22;18066;52.106;5.534;2022-10-04T14:11:05;18.30;99.90
18297;DHT22;18066;52.106;5.534;2022-10-04T14:17:02;18.30;99.90
18297;DHT22;18066;52.106;5.534;2022-10-04T14:19:51;18.40;99.90
18297;DHT22;18066;52.106;5.534;2022-10-04T14:22:52;18.40;99.90
18297;DHT22;18066;52.106;5.534;2022-10-04T14:25:45;18.30;99.90
18297;DHT22;18066;52.106;5.534;2022-10-04T14:28:43;18.40;99.90
18297;DHT22;18066;52.106;5.534;2022-10-04T14:31:40;18.40;99.90
18297;DHT22;18066;52.106;5.534;2022-10-04T14:34:39;18.70;99.90
18297;DHT22;18066;52.106;5.534;2022-10-04T14:37:41;18.30;99.90
18297;DHT22;18066;52.106;5.534;2022-10-04T14:40:37;18.30;99.90
18297;DHT22;18066;52.106;5.534;2022-10-04T14:46:15;18.10;99.90
18297;DHT22;18066;52.106;5.534;2022-10-04T14:49:02;18.30;99.90
18297;DHT22;18066;52.106;5.534;2022-10-04T14:51:43;18.40;99.90
18297;DHT22;18066;52.106;5.534;2022-10-04T14:54:16;18.60;99.90
18297;DHT22;18066;52.106;5.534;2022-10-04T14:57:00;18.60;99.90
18297;DHT22;18066;52.106;5.534;2022-10-04T14:59:49;18.70;99.90
18297;DHT22;18066;52.106;5.534;2022-10-04T15:02:54;18.70;99.90
18297;DHT22;18066;52.106;5.534;2022-10-04T15:08:39;18.70;99.90
18297;DHT22;18066;52.106;5.534;2022-10-04T15:11:10;18.90;99.90
18297;DHT22;18066;52.106;5.534;2022-10-04T15:13:50;18.90;99.90
18297;DHT22;18066;52.106;5.534;2022-10-04T15:16:32;18.90;99.90
18297;DHT22;18066;52.106;5.534;2022-10-04T15:19:04;18.80;99.90
18297;DHT22;18066;52.106;5.534;2022-10-04T15:21:42;19.40;99.90
18297;DHT22;18066;52.106;5.534;2022-10-04T15:24:26;18.60;99.90
18297;DHT22;18066;52.106;5.534;2022-10-04T15:27:26;18.60;99.90
18297;DHT22;18066;52.106;5.534;2022-10-04T15:30:07;18.50;99.90
18297;DHT22;18066;52.106;5.534;2022-10-04T15:32:39;18.50;99.90
18297;DHT22;18066;52.106;5.534;2022-10-04T15:35:20;18.40;99.90
18297;DHT22;18066;52.106;5.534;2022-10-04T15:37:53;18.20;99.90
18297;DHT22;18066;52.106;5.534;2022-10-04T15:40:32;18.00;99.90
18297;DHT22;18066;52.106;5.534;2022-10-04T15:43:22;18.00;99.90
18297;DHT22;18066;52.106;5.534;2022-10-04T15:49:36;18.10;99.90
18297;DHT22;18066;52.106;5.534;2022-10-04T15:55:15;17.90;99.90
18297;DHT22;18066;52.106;5.534;2022-10-04T15:58:06;17.80;99.90
18297;DHT22;18066;52.106;5.534;2022-10-04T16:00:47;17.90;99.90
18297;DHT22;18066;52.106;5.534;2022-10-04T16:03:26;17.70;99.90
18297;DHT22;18066;52.106;5.534;2022-10-04T16:06:01;17.70;99.90
18297;DHT22;18066;52.106;5.534;2022-10-04T16:08:50;17.70;99.90
18297;DHT22;18066;52.106;5.534;2022-10-04T16:11:30;17.70;99.90
18297;DHT22;18066;52.106;5.534;2022-10-04T16:14:17;17.60;99.90
18297;DHT22;18066;52.106;5.534;2022-10-04T16:17:05;17.70;99.90
18297;DHT22;18066;52.106;5.534;2022-10-04T16:19:46;17.70;99.90
18297;DHT22;18066;52.106;5.534;2022-10-04T16:22:17;17.60;99.90
18297;DHT22;18066;52.106;5.534;2022-10-04T16:24:47;17.70;99.90
18297;DHT22;18066;52.106;5.534;2022-10-04T16:27:26;17.60;99.90
18297;DHT22;18066;52.106;5.534;2022-10-04T16:30:04;17.60;99.90
18297;DHT22;18066;52.106;5.534;2022-10-04T16:32:39;17.50;99.90
18297;DHT22;18066;52.106;5.534;2022-10-04T16:35:15;17.50;99.90
18297;DHT22;18066;52.106;5.534;2022-10-04T16:37:56;17.40;99.90
18297;DHT22;18066;52.106;5.534;2022-10-04T16:40:31;17.30;99.90
18297;DHT22;18066;52.106;5.534;2022-10-04T16:43:04;17.20;99.90
18297;DHT22;18066;52.106;5.534;2022-10-04T16:45:42;17.10;99.90
18297;DHT22;18066;52.106;5.534;2022-10-04T16:48:24;16.90;99.90
18297;DHT22;18066;52.106;5.534;2022-10-04T16:53:57;16.70;99.90
18297;DHT22;18066;52.106;5.534;2022-10-04T16:56:27;16.80;99.90
18297;DHT22;18066;52.106;5.534;2022-10-04T16:58:56;16.70;99.90
18297;DHT22;18066;52.106;5.534;2022-10-04T17:02:02;16.60;99.90
18297;DHT22;18066;52.106;5.534;2022-10-04T17:04:51;16.60;99.90
18297;DHT22;18066;52.106;5.534;2022-10-04T17:07:39;16.60;99.90
18297;DHT22;18066;52.106;5.534;2022-10-04T17:10:30;16.50;99.90
18297;DHT22;18066;52.106;5.534;2022-10-04T17:13:06;16.40;99.90
18297;DHT22;18066;52.106;5.534;2022-10-04T17:15:48;16.50;99.90
18297;DHT22;18066;52.106;5.534;2022-10-04T17:18:30;16.30;99.90
18297;DHT22;18066;52.106;5.534;2022-10-04T17:20:59;16.50;99.90
18297;DHT22;18066;52.106;5.534;2022-10-04T17:26:42;16.40;99.90
18297;DHT22;18066;52.106;5.534;2022-10-04T17:29:30;16.40;99.90
18297;DHT22;18066;52.106;5.534;2022-10-04T17:32:04;16.40;99.90
18297;DHT22;18066;52.106;5.534;2022-10-04T17:34:41;16.50;99.90
18297;DHT22;18066;52.106;5.534;2022-10-04T17:37:21;16.40;99.90
18297;DHT22;18066;52.106;5.534;2022-10-04T17:39:58;16.40;99.90
18297;DHT22;18066;52.106;5.534;2022-10-04T17:42:39;16.40;99.90
18297;DHT22;18066;52.106;5.534;2022-10-04T17:45:26;16.40;99.90
18297;DHT22;18066;52.106;5.534;2022-10-04T17:48:00;16.40;99.90
18297;DHT22;18066;52.106;5.534;2022-10-04T17:50:54;16.30;99.90
18297;DHT22;18066;52.106;5.534;2022-10-04T17:53:43;16.50;99.90
18297;DHT22;18066;52.106;5.534;2022-10-04T17:56:32;16.60;99.90
18297;DHT22;18066;52.106;5.534;2022-10-04T17:59:06;16.40;99.90
18297;DHT22;18066;52.106;5.534;2022-10-04T18:01:36;16.40;99.90
18297;DHT22;18066;52.106;5.534;2022-10-04T18:04:08;16.40;99.90
18297;DHT22;18066;52.106;5.534;2022-10-04T18:06:42;16.40;99.90
18297;DHT22;18066;52.106;5.534;2022-10-04T18:09:20;16.50;99.90
18297;DHT22;18066;52.106;5.534;2022-10-04T18:11:50;16.50;99.90
18297;DHT22;18066;52.106;5.534;2022-10-04T18:17:06;16.50;99.90
18297;DHT22;18066;52.106;5.534;2022-10-04T18:19:39;16.50;99.90